Terminal Aerodrome Forecast
Issued by NWS Hastings, NE

Home | Current Version | Previous Version | Text Only | Print | Product List | Glossary On
Versions: 1 2 3 4 5 6 7 8 9 10 11 12 13 14 15 16 17 18 19 20 21 22 23
311
FTUS45 KGID 131752
TAFEAR
TAF
KEAR 131752Z 1318/1418 16014G20KT P6SM SCT015 OVC030
      TEMPO 1319/1322 OVC025
     FM132200 16012KT P6SM SCT025 BKN040
     FM140600 22009KT P6SM SCT015 BKN035
     FM140900 27013KT P6SM SCT040 SCT200
      AMD LTD TO CLD VIS AND WIND=

USA.gov is the U.S. government's official web portal to all federal, state and local government web resources and services.